sensor_id;sensor_type;location;lat;lon;timestamp;temperature;humidity
38380;DHT22;38377;47.418;18.882;2023-06-22T00:00:57;20.10;99.90
38380;DHT22;38377;47.418;18.882;2023-06-22T00:03:24;20.00;99.90
38380;DHT22;38377;47.418;18.882;2023-06-22T00:05:50;20.10;99.90
38380;DHT22;38377;47.418;18.882;2023-06-22T00:08:17;20.10;99.90
38380;DHT22;38377;47.418;18.882;2023-06-22T00:10:43;20.00;99.90
38380;DHT22;38377;47.418;18.882;2023-06-22T00:13:10;20.00;99.90
38380;DHT22;38377;47.418;18.882;2023-06-22T00:15:37;20.00;99.90
38380;DHT22;38377;47.418;18.882;2023-06-22T00:18:04;20.00;99.90
38380;DHT22;38377;47.418;18.882;2023-06-22T00:20:30;19.90;99.90
38380;DHT22;38377;47.418;18.882;2023-06-22T00:22:58;19.90;99.90
38380;DHT22;38377;47.418;18.882;2023-06-22T00:25:25;19.90;99.90
38380;DHT22;38377;47.418;18.882;2023-06-22T00:27:51;19.90;99.90
38380;DHT22;38377;47.418;18.882;2023-06-22T00:30:18;19.90;99.90
38380;DHT22;38377;47.418;18.882;2023-06-22T00:32:44;19.80;99.90
38380;DHT22;38377;47.418;18.882;2023-06-22T00:35:12;19.80;99.90
38380;DHT22;38377;47.418;18.882;2023-06-22T00:37:38;19.70;99.90
38380;DHT22;38377;47.418;18.882;2023-06-22T00:40:08;19.70;99.90
38380;DHT22;38377;47.418;18.882;2023-06-22T00:42:34;19.80;99.90
38380;DHT22;38377;47.418;18.882;2023-06-22T00:45:00;19.80;99.90
38380;DHT22;38377;47.418;18.882;2023-06-22T00:47:26;19.70;99.90
38380;DHT22;38377;47.418;18.882;2023-06-22T00:49:52;19.60;99.90
38380;DHT22;38377;47.418;18.882;2023-06-22T00:52:20;19.70;99.90
38380;DHT22;38377;47.418;18.882;2023-06-22T00:54:51;19.70;99.90
38380;DHT22;38377;47.418;18.882;2023-06-22T00:57:17;19.70;99.90
38380;DHT22;38377;47.418;18.882;2023-06-22T00:59:48;19.60;99.90
38380;DHT22;38377;47.418;18.882;2023-06-22T01:02:14;19.60;99.90
38380;DHT22;38377;47.418;18.882;2023-06-22T01:04:40;19.60;99.90
38380;DHT22;38377;47.418;18.882;2023-06-22T01:12:23;19.50;99.90
38380;DHT22;38377;47.418;18.882;2023-06-22T01:14:55;19.50;99.90
38380;DHT22;38377;47.418;18.882;2023-06-22T01:17:23;19.40;99.90
38380;DHT22;38377;47.418;18.882;2023-06-22T01:19:51;19.50;99.90
38380;DHT22;38377;47.418;18.882;2023-06-22T01:22:24;19.40;99.90
38380;DHT22;38377;47.418;18.882;2023-06-22T01:25:19;19.40;99.90
38380;DHT22;38377;47.418;18.882;2023-06-22T01:31:08;19.40;99.90
38380;DHT22;38377;47.418;18.882;2023-06-22T01:33:37;19.30;99.90
38380;DHT22;38377;47.418;18.882;2023-06-22T01:36:05;19.30;99.90
38380;DHT22;38377;47.418;18.882;2023-06-22T01:38:32;19.20;99.90
38380;DHT22;38377;47.418;18.882;2023-06-22T01:41:00;19.30;99.90
38380;DHT22;38377;47.418;18.882;2023-06-22T01:43:27;19.30;99.90
38380;DHT22;38377;47.418;18.882;2023-06-22T01:45:54;19.20;99.90
38380;DHT22;38377;47.418;18.882;2023-06-22T01:48:22;19.30;99.90
38380;DHT22;38377;47.418;18.882;2023-06-22T01:50:48;19.20;99.90
38380;DHT22;38377;47.418;18.882;2023-06-22T01:53:13;19.20;99.90
38380;DHT22;38377;47.418;18.882;2023-06-22T01:55:39;19.20;99.90
38380;DHT22;38377;47.418;18.882;2023-06-22T01:58:05;19.20;99.90
38380;DHT22;38377;47.418;18.882;2023-06-22T02:00:34;19.10;99.90
38380;DHT22;38377;47.418;18.882;2023-06-22T02:03:23;19.20;99.90
38380;DHT22;38377;47.418;18.882;2023-06-22T02:06:20;19.10;99.90
38380;DHT22;38377;47.418;18.882;2023-06-22T02:08:53;19.10;99.90
38380;DHT22;38377;47.418;18.882;2023-06-22T02:11:21;19.10;99.90
38380;DHT22;38377;47.418;18.882;2023-06-22T02:13:48;19.10;99.90
38380;DHT22;38377;47.418;18.882;2023-06-22T02:16:15;19.10;99.90
38380;DHT22;38377;47.418;18.882;2023-06-22T02:18:49;19.00;99.90
38380;DHT22;38377;47.418;18.882;2023-06-22T02:21:19;18.90;99.90
38380;DHT22;38377;47.418;18.882;2023-06-22T02:23:44;19.00;99.90
38380;DHT22;38377;47.418;18.882;2023-06-22T02:26:10;19.00;99.90
38380;DHT22;38377;47.418;18.882;2023-06-22T02:28:36;19.10;99.90
38380;DHT22;38377;47.418;18.882;2023-06-22T02:31:02;19.10;99.90
38380;DHT22;38377;47.418;18.882;2023-06-22T02:33:27;19.10;99.90
38380;DHT22;38377;47.418;18.882;2023-06-22T02:35:53;19.10;99.90
38380;DHT22;38377;47.418;18.882;2023-06-22T02:38:19;19.10;99.90
38380;DHT22;38377;47.418;18.882;2023-06-22T02:40:45;19.00;99.90
38380;DHT22;38377;47.418;18.882;2023-06-22T02:43:11;18.90;99.90
38380;DHT22;38377;47.418;18.882;2023-06-22T02:45:37;19.00;99.90
38380;DHT22;38377;47.418;18.882;2023-06-22T02:48:03;18.90;99.90
38380;DHT22;38377;47.418;18.882;2023-06-22T02:50:29;18.90;99.90
38380;DHT22;38377;47.418;18.882;2023-06-22T02:52:54;18.90;99.90
38380;DHT22;38377;47.418;18.882;2023-06-22T02:55:20;18.90;99.90
38380;DHT22;38377;47.418;18.882;2023-06-22T02:57:46;18.90;99.90
38380;DHT22;38377;47.418;18.882;2023-06-22T03:00:13;19.00;99.90
38380;DHT22;38377;47.418;18.882;2023-06-22T03:02:44;18.90;99.90
38380;DHT22;38377;47.418;18.882;2023-06-22T03:05:10;18.90;99.90
38380;DHT22;38377;47.418;18.882;2023-06-22T03:07:42;19.00;99.90
38380;DHT22;38377;47.418;18.882;2023-06-22T03:10:09;18.90;99.90
38380;DHT22;38377;47.418;18.882;2023-06-22T03:12:35;18.90;99.90
38380;DHT22;38377;47.418;18.882;2023-06-22T03:15:01;18.90;99.90
38380;DHT22;38377;47.418;18.882;2023-06-22T03:17:26;18.90;99.90
38380;DHT22;38377;47.418;18.882;2023-06-22T03:19:52;18.90;99.90
38380;DHT22;38377;47.418;18.882;2023-06-22T03:22:18;18.90;99.90
38380;DHT22;38377;47.418;18.882;2023-06-22T03:24:43;18.90;99.90
38380;DHT22;38377;47.418;18.882;2023-06-22T03:27:09;18.90;99.90
38380;DHT22;38377;47.418;18.882;2023-06-22T03:29:35;18.90;99.90
38380;DHT22;38377;47.418;18.882;2023-06-22T03:32:00;18.90;99.90
38380;DHT22;38377;47.418;18.882;2023-06-22T03:34:27;18.80;99.90
38380;DHT22;38377;47.418;18.882;2023-06-22T03:36:52;18.80;99.90
38380;DHT22;38377;47.418;18.882;2023-06-22T03:39:18;18.80;99.90
38380;DHT22;38377;47.418;18.882;2023-06-22T03:41:44;18.80;99.90
38380;DHT22;38377;47.418;18.882;2023-06-22T03:44:10;18.90;99.90
38380;DHT22;38377;47.418;18.882;2023-06-22T03:46:38;18.90;99.90
38380;DHT22;38377;47.418;18.882;2023-06-22T03:49:03;19.10;99.90
38380;DHT22;38377;47.418;18.882;2023-06-22T03:51:30;19.10;99.90
38380;DHT22;38377;47.418;18.882;2023-06-22T03:53:55;19.10;99.90
38380;DHT22;38377;47.418;18.882;2023-06-22T03:56:21;19.20;99.90
38380;DHT22;38377;47.418;18.882;2023-06-22T03:58:47;19.20;99.90
38380;DHT22;38377;47.418;18.882;2023-06-22T04:01:12;19.30;99.90
38380;DHT22;38377;47.418;18.882;2023-06-22T04:03:39;19.40;99.90
38380;DHT22;38377;47.418;18.882;2023-06-22T04:06:04;19.40;99.90
38380;DHT22;38377;47.418;18.882;2023-06-22T04:08:30;19.40;99.90
38380;DHT22;38377;47.418;18.882;2023-06-22T04:10:56;19.50;99.90
38380;DHT22;38377;47.418;18.882;2023-06-22T04:13:22;19.50;99.90
38380;DHT22;38377;47.418;18.882;2023-06-22T04:15:47;19.60;99.90
38380;DHT22;38377;47.418;18.882;2023-06-22T04:18:13;19.60;99.90
38380;DHT22;38377;47.418;18.882;2023-06-22T04:20:39;19.70;99.90
38380;DHT22;38377;47.418;18.882;2023-06-22T04:23:04;19.80;99.90
38380;DHT22;38377;47.418;18.882;2023-06-22T04:25:30;19.90;99.90
38380;DHT22;38377;47.418;18.882;2023-06-22T04:27:56;20.00;99.90
38380;DHT22;38377;47.418;18.882;2023-06-22T04:30:21;20.10;99.90
38380;DHT22;38377;47.418;18.882;2023-06-22T04:32:47;20.20;99.90
38380;DHT22;38377;47.418;18.882;2023-06-22T04:35:22;20.30;99.90
38380;DHT22;38377;47.418;18.882;2023-06-22T04:37:52;20.50;99.90
38380;DHT22;38377;47.418;18.882;2023-06-22T04:40:21;20.60;99.90
38380;DHT22;38377;47.418;18.882;2023-06-22T04:42:47;20.70;99.90
38380;DHT22;38377;47.418;18.882;2023-06-22T04:45:17;20.90;99.90
38380;DHT22;38377;47.418;18.882;2023-06-22T04:47:43;20.90;99.90
38380;DHT22;38377;47.418;18.882;2023-06-22T04:50:11;21.00;99.90
38380;DHT22;38377;47.418;18.882;2023-06-22T04:52:37;21.10;99.90
38380;DHT22;38377;47.418;18.882;2023-06-22T04:55:03;21.00;99.90
38380;DHT22;38377;47.418;18.882;2023-06-22T04:57:29;21.10;99.90
38380;DHT22;38377;47.418;18.882;2023-06-22T05:00:01;21.20;99.90
38380;DHT22;38377;47.418;18.882;2023-06-22T05:02:44;21.20;99.90
38380;DHT22;38377;47.418;18.882;2023-06-22T05:05:14;21.20;99.90
38380;DHT22;38377;47.418;18.882;2023-06-22T05:07:43;21.20;99.90
38380;DHT22;38377;47.418;18.882;2023-06-22T05:10:11;21.20;99.90
38380;DHT22;38377;47.418;18.882;2023-06-22T05:12:38;21.30;99.90
38380;DHT22;38377;47.418;18.882;2023-06-22T05:15:05;21.60;99.90
38380;DHT22;38377;47.418;18.882;2023-06-22T05:17:31;21.80;99.90
38380;DHT22;38377;47.418;18.882;2023-06-22T05:19:57;22.10;99.90
38380;DHT22;38377;47.418;18.882;2023-06-22T05:22:22;22.40;99.90
38380;DHT22;38377;47.418;18.882;2023-06-22T05:24:48;22.80;99.90
38380;DHT22;38377;47.418;18.882;2023-06-22T05:27:14;23.10;99.90
38380;DHT22;38377;47.418;18.882;2023-06-22T05:29:40;23.50;99.90
38380;DHT22;38377;47.418;18.882;2023-06-22T05:32:06;24.20;99.90
38380;DHT22;38377;47.418;18.882;2023-06-22T05:34:32;24.40;99.90
38380;DHT22;38377;47.418;18.882;2023-06-22T05:36:58;24.60;99.90
38380;DHT22;38377;47.418;18.882;2023-06-22T05:39:27;24.40;99.90
38380;DHT22;38377;47.418;18.882;2023-06-22T05:41:52;24.40;99.90
38380;DHT22;38377;47.418;18.882;2023-06-22T05:44:18;24.40;99.90
38380;DHT22;38377;47.418;18.882;2023-06-22T05:46:44;24.30;99.90
38380;DHT22;38377;47.418;18.882;2023-06-22T05:49:12;24.00;99.90
38380;DHT22;38377;47.418;18.882;2023-06-22T05:51:38;23.90;99.90
38380;DHT22;38377;47.418;18.882;2023-06-22T05:54:04;23.70;99.90
38380;DHT22;38377;47.418;18.882;2023-06-22T05:56:30;23.70;99.90
38380;DHT22;38377;47.418;18.882;2023-06-22T05:58:55;23.70;99.90
38380;DHT22;38377;47.418;18.882;2023-06-22T06:01:21;23.60;99.90
38380;DHT22;38377;47.418;18.882;2023-06-22T06:03:46;23.70;99.90
38380;DHT22;38377;47.418;18.882;2023-06-22T06:06:14;23.70;99.90
38380;DHT22;38377;47.418;18.882;2023-06-22T06:08:39;23.70;99.90
38380;DHT22;38377;47.418;18.882;2023-06-22T06:11:05;23.70;99.90
38380;DHT22;38377;47.418;18.882;2023-06-22T06:13:31;23.70;99.90
38380;DHT22;38377;47.418;18.882;2023-06-22T06:15:57;23.80;99.90
38380;DHT22;38377;47.418;18.882;2023-06-22T06:18:23;23.80;99.90
38380;DHT22;38377;47.418;18.882;2023-06-22T06:20:49;23.80;99.90
38380;DHT22;38377;47.418;18.882;2023-06-22T06:23:14;23.90;99.90
38380;DHT22;38377;47.418;18.882;2023-06-22T06:25:40;24.00;99.90
38380;DHT22;38377;47.418;18.882;2023-06-22T06:28:06;24.00;99.90
38380;DHT22;38377;47.418;18.882;2023-06-22T06:30:31;24.10;99.90
38380;DHT22;38377;47.418;18.882;2023-06-22T06:32:57;24.20;99.90
38380;DHT22;38377;47.418;18.882;2023-06-22T06:35:23;24.40;99.90
38380;DHT22;38377;47.418;18.882;2023-06-22T06:37:50;24.50;99.90
38380;DHT22;38377;47.418;18.882;2023-06-22T06:40:17;24.50;99.90
38380;DHT22;38377;47.418;18.882;2023-06-22T06:42:47;24.60;99.90
38380;DHT22;38377;47.418;18.882;2023-06-22T06:45:22;24.70;99.90
38380;DHT22;38377;47.418;18.882;2023-06-22T06:47:49;24.70;99.90
38380;DHT22;38377;47.418;18.882;2023-06-22T06:50:15;24.70;99.90
38380;DHT22;38377;47.418;18.882;2023-06-22T06:52:41;24.70;99.90
38380;DHT22;38377;47.418;18.882;2023-06-22T06:55:08;24.80;99.90
38380;DHT22;38377;47.418;18.882;2023-06-22T06:57:38;24.80;99.90
38380;DHT22;38377;47.418;18.882;2023-06-22T07:00:06;24.90;99.90
38380;DHT22;38377;47.418;18.882;2023-06-22T07:02:35;24.90;99.90
38380;DHT22;38377;47.418;18.882;2023-06-22T07:05:01;25.20;99.90
38380;DHT22;38377;47.418;18.882;2023-06-22T07:07:29;25.40;99.90
38380;DHT22;38377;47.418;18.882;2023-06-22T07:09:55;25.60;99.90
38380;DHT22;38377;47.418;18.882;2023-06-22T07:12:21;25.70;99.90
38380;DHT22;38377;47.418;18.882;2023-06-22T07:14:46;25.80;99.90
38380;DHT22;38377;47.418;18.882;2023-06-22T07:17:12;25.80;98.70
38380;DHT22;38377;47.418;18.882;2023-06-22T07:19:38;26.00;98.70
38380;DHT22;38377;47.418;18.882;2023-06-22T07:22:04;26.20;98.40
38380;DHT22;38377;47.418;18.882;2023-06-22T07:24:30;26.30;98.80
38380;DHT22;38377;47.418;18.882;2023-06-22T07:26:55;26.40;98.40
38380;DHT22;38377;47.418;18.882;2023-06-22T07:29:24;26.60;99.70
38380;DHT22;38377;47.418;18.882;2023-06-22T07:31:50;26.80;99.90
38380;DHT22;38377;47.418;18.882;2023-06-22T07:34:22;27.00;99.80
38380;DHT22;38377;47.418;18.882;2023-06-22T07:36:48;27.10;96.80
38380;DHT22;38377;47.418;18.882;2023-06-22T07:39:13;27.10;97.50
38380;DHT22;38377;47.418;18.882;2023-06-22T07:41:40;27.30;98.00
38380;DHT22;38377;47.418;18.882;2023-06-22T07:44:09;27.40;96.10
38380;DHT22;38377;47.418;18.882;2023-06-22T07:46:34;27.60;96.90
38380;DHT22;38377;47.418;18.882;2023-06-22T07:49:00;27.80;97.20
38380;DHT22;38377;47.418;18.882;2023-06-22T07:51:27;28.00;97.90
38380;DHT22;38377;47.418;18.882;2023-06-22T07:53:53;28.20;94.40
38380;DHT22;38377;47.418;18.882;2023-06-22T07:56:18;27.90;95.60
38380;DHT22;38377;47.418;18.882;2023-06-22T07:58:46;27.80;95.60
38380;DHT22;38377;47.418;18.882;2023-06-22T08:01:13;27.80;93.30
38380;DHT22;38377;47.418;18.882;2023-06-22T08:03:39;28.10;93.30
38380;DHT22;38377;47.418;18.882;2023-06-22T08:06:05;28.20;95.10
38380;DHT22;38377;47.418;18.882;2023-06-22T08:08:31;28.10;92.90
38380;DHT22;38377;47.418;18.882;2023-06-22T08:10:57;28.20;94.30
38380;DHT22;38377;47.418;18.882;2023-06-22T08:13:23;28.20;93.70
38380;DHT22;38377;47.418;18.882;2023-06-22T08:15:48;28.50;94.30
38380;DHT22;38377;47.418;18.882;2023-06-22T08:18:14;28.50;92.10
38380;DHT22;38377;47.418;18.882;2023-06-22T08:20:41;28.80;92.00
38380;DHT22;38377;47.418;18.882;2023-06-22T08:23:07;28.70;91.50
38380;DHT22;38377;47.418;18.882;2023-06-22T08:25:34;28.60;92.90
38380;DHT22;38377;47.418;18.882;2023-06-22T08:28:00;28.60;93.80
38380;DHT22;38377;47.418;18.882;2023-06-22T08:30:26;28.60;91.40
38380;DHT22;38377;47.418;18.882;2023-06-22T08:32:52;28.70;92.30
38380;DHT22;38377;47.418;18.882;2023-06-22T08:35:19;28.70;90.90
38380;DHT22;38377;47.418;18.882;2023-06-22T08:37:46;28.50;91.00
38380;DHT22;38377;47.418;18.882;2023-06-22T08:40:20;28.60;91.20
38380;DHT22;38377;47.418;18.882;2023-06-22T08:42:46;28.80;90.90
38380;DHT22;38377;47.418;18.882;2023-06-22T08:45:12;29.00;91.70
38380;DHT22;38377;47.418;18.882;2023-06-22T08:47:39;29.40;91.10
38380;DHT22;38377;47.418;18.882;2023-06-22T08:50:07;29.20;91.00
38380;DHT22;38377;47.418;18.882;2023-06-22T08:52:34;29.40;90.10
38380;DHT22;38377;47.418;18.882;2023-06-22T08:55:00;29.70;91.50
38380;DHT22;38377;47.418;18.882;2023-06-22T08:57:26;29.90;91.50
38380;DHT22;38377;47.418;18.882;2023-06-22T08:59:52;29.70;90.20
38380;DHT22;38377;47.418;18.882;2023-06-22T09:02:18;29.60;89.80
38380;DHT22;38377;47.418;18.882;2023-06-22T09:04:46;29.60;91.70
38380;DHT22;38377;47.418;18.882;2023-06-22T09:07:11;30.00;90.50
38380;DHT22;38377;47.418;18.882;2023-06-22T09:09:37;30.20;88.30
38380;DHT22;38377;47.418;18.882;2023-06-22T09:12:04;30.20;88.80
38380;DHT22;38377;47.418;18.882;2023-06-22T09:14:29;30.20;91.10
38380;DHT22;38377;47.418;18.882;2023-06-22T09:16:55;30.10;88.90
38380;DHT22;38377;47.418;18.882;2023-06-22T09:19:21;30.40;89.30
38380;DHT22;38377;47.418;18.882;2023-06-22T09:22:03;30.60;89.20
38380;DHT22;38377;47.418;18.882;2023-06-22T09:24:28;30.40;86.40
38380;DHT22;38377;47.418;18.882;2023-06-22T09:26:54;30.20;90.00
38380;DHT22;38377;47.418;18.882;2023-06-22T09:29:20;30.20;89.60
38380;DHT22;38377;47.418;18.882;2023-06-22T09:31:45;30.20;89.30
38380;DHT22;38377;47.418;18.882;2023-06-22T09:34:11;30.20;90.00
38380;DHT22;38377;47.418;18.882;2023-06-22T09:36:37;30.50;89.70
38380;DHT22;38377;47.418;18.882;2023-06-22T09:39:05;30.70;89.30
38380;DHT22;38377;47.418;18.882;2023-06-22T09:41:32;31.00;85.40
38380;DHT22;38377;47.418;18.882;2023-06-22T09:43:57;30.50;86.50
38380;DHT22;38377;47.418;18.882;2023-06-22T09:46:23;30.50;87.90
38380;DHT22;38377;47.418;18.882;2023-06-22T09:48:50;30.40;85.00
38380;DHT22;38377;47.418;18.882;2023-06-22T09:51:16;30.50;88.20
38380;DHT22;38377;47.418;18.882;2023-06-22T09:53:42;30.50;85.40
38380;DHT22;38377;47.418;18.882;2023-06-22T09:56:09;30.50;85.00
38380;DHT22;38377;47.418;18.882;2023-06-22T09:58:42;30.80;84.60
38380;DHT22;38377;47.418;18.882;2023-06-22T10:01:08;30.80;84.80
38380;DHT22;38377;47.418;18.882;2023-06-22T10:03:34;30.50;83.90
38380;DHT22;38377;47.418;18.882;2023-06-22T10:05:59;30.50;83.00
38380;DHT22;38377;47.418;18.882;2023-06-22T10:08:25;30.60;85.80
38380;DHT22;38377;47.418;18.882;2023-06-22T10:10:51;30.70;82.90
38380;DHT22;38377;47.418;18.882;2023-06-22T10:13:16;30.90;83.80
38380;DHT22;38377;47.418;18.882;2023-06-22T10:15:42;31.30;83.80
38380;DHT22;38377;47.418;18.882;2023-06-22T10:18:08;31.40;81.90
38380;DHT22;38377;47.418;18.882;2023-06-22T10:20:33;31.40;81.30
38380;DHT22;38377;47.418;18.882;2023-06-22T10:22:59;31.20;80.20
38380;DHT22;38377;47.418;18.882;2023-06-22T10:25:26;31.40;82.50
38380;DHT22;38377;47.418;18.882;2023-06-22T10:27:51;31.20;83.00
38380;DHT22;38377;47.418;18.882;2023-06-22T10:30:17;31.20;80.10
38380;DHT22;38377;47.418;18.882;2023-06-22T10:32:43;31.20;80.20
38380;DHT22;38377;47.418;18.882;2023-06-22T10:35:09;31.30;82.60
38380;DHT22;38377;47.418;18.882;2023-06-22T10:37:36;31.60;81.10
38380;DHT22;38377;47.418;18.882;2023-06-22T10:40:02;31.40;80.30
38380;DHT22;38377;47.418;18.882;2023-06-22T10:42:29;31.60;80.30
38380;DHT22;38377;47.418;18.882;2023-06-22T10:44:56;31.70;82.30
38380;DHT22;38377;47.418;18.882;2023-06-22T10:47:21;32.10;81.20
38380;DHT22;38377;47.418;18.882;2023-06-22T10:49:47;31.70;78.20
38380;DHT22;38377;47.418;18.882;2023-06-22T10:52:13;31.80;83.00
38380;DHT22;38377;47.418;18.882;2023-06-22T10:54:39;32.10;78.70
38380;DHT22;38377;47.418;18.882;2023-06-22T10:57:04;31.90;83.00
38380;DHT22;38377;47.418;18.882;2023-06-22T10:59:30;31.90;78.80
38380;DHT22;38377;47.418;18.882;2023-06-22T11:01:56;31.90;79.80
38380;DHT22;38377;47.418;18.882;2023-06-22T11:04:23;32.00;78.20
38380;DHT22;38377;47.418;18.882;2023-06-22T11:06:49;32.10;78.60
38380;DHT22;38377;47.418;18.882;2023-06-22T11:09:15;32.20;77.60
38380;DHT22;38377;47.418;18.882;2023-06-22T11:11:46;32.20;77.80
38380;DHT22;38377;47.418;18.882;2023-06-22T11:14:11;31.90;77.70
38380;DHT22;38377;47.418;18.882;2023-06-22T11:16:37;32.30;78.30
38380;DHT22;38377;47.418;18.882;2023-06-22T11:19:05;32.60;79.10
38380;DHT22;38377;47.418;18.882;2023-06-22T11:21:31;32.20;73.60
38380;DHT22;38377;47.418;18.882;2023-06-22T11:23:57;31.50;76.70
38380;DHT22;38377;47.418;18.882;2023-06-22T11:26:23;31.60;78.50
38380;DHT22;38377;47.418;18.882;2023-06-22T11:28:48;31.60;77.50
38380;DHT22;38377;47.418;18.882;2023-06-22T11:31:17;31.80;76.30
38380;DHT22;38377;47.418;18.882;2023-06-22T11:33:42;31.80;81.30
38380;DHT22;38377;47.418;18.882;2023-06-22T11:36:10;31.90;77.30
38380;DHT22;38377;47.418;18.882;2023-06-22T11:38:36;31.70;76.80
38380;DHT22;38377;47.418;18.882;2023-06-22T11:41:08;31.90;75.60
38380;DHT22;38377;47.418;18.882;2023-06-22T11:43:33;31.60;78.80
38380;DHT22;38377;47.418;18.882;2023-06-22T11:46:00;31.60;76.80
38380;DHT22;38377;47.418;18.882;2023-06-22T11:48:26;31.70;79.20
38380;DHT22;38377;47.418;18.882;2023-06-22T11:50:52;31.60;74.30
38380;DHT22;38377;47.418;18.882;2023-06-22T11:53:18;31.60;76.00
38380;DHT22;38377;47.418;18.882;2023-06-22T11:55:46;31.90;79.80
38380;DHT22;38377;47.418;18.882;2023-06-22T11:58:12;32.10;76.80
38380;DHT22;38377;47.418;18.882;2023-06-22T12:00:38;32.00;78.10
38380;DHT22;38377;47.418;18.882;2023-06-22T12:03:04;31.60;75.60
38380;DHT22;38377;47.418;18.882;2023-06-22T12:05:30;31.90;75.10
38380;DHT22;38377;47.418;18.882;2023-06-22T12:07:55;31.90;74.50
38380;DHT22;38377;47.418;18.882;2023-06-22T12:10:22;31.80;74.60
38380;DHT22;38377;47.418;18.882;2023-06-22T12:12:48;31.80;74.70
38380;DHT22;38377;47.418;18.882;2023-06-22T12:15:14;32.00;75.50
38380;DHT22;38377;47.418;18.882;2023-06-22T12:17:40;31.80;75.30
38380;DHT22;38377;47.418;18.882;2023-06-22T12:20:06;32.10;76.20
38380;DHT22;38377;47.418;18.882;2023-06-22T12:22:33;31.60;74.70
38380;DHT22;38377;47.418;18.882;2023-06-22T12:24:59;31.20;74.60
38380;DHT22;38377;47.418;18.882;2023-06-22T12:27:25;31.30;77.30
38380;DHT22;38377;47.418;18.882;2023-06-22T12:29:51;31.60;76.70
38380;DHT22;38377;47.418;18.882;2023-06-22T12:32:16;31.80;74.00
38380;DHT22;38377;47.418;18.882;2023-06-22T12:34:42;31.80;75.50
38380;DHT22;38377;47.418;18.882;2023-06-22T12:37:08;31.80;75.10
38380;DHT22;38377;47.418;18.882;2023-06-22T12:39:34;31.90;76.20
38380;DHT22;38377;47.418;18.882;2023-06-22T12:42:00;32.30;77.10
38380;DHT22;38377;47.418;18.882;2023-06-22T12:44:26;32.00;72.80
38380;DHT22;38377;47.418;18.882;2023-06-22T12:46:52;32.10;73.00
38380;DHT22;38377;47.418;18.882;2023-06-22T12:49:17;32.10;74.10
38380;DHT22;38377;47.418;18.882;2023-06-22T12:51:44;32.50;75.20
38380;DHT22;38377;47.418;18.882;2023-06-22T12:54:10;32.60;73.10
38380;DHT22;38377;47.418;18.882;2023-06-22T12:56:37;32.70;73.70
38380;DHT22;38377;47.418;18.882;2023-06-22T12:59:03;32.40;70.80
38380;DHT22;38377;47.418;18.882;2023-06-22T13:01:32;32.30;71.80
38380;DHT22;38377;47.418;18.882;2023-06-22T13:03:58;32.30;70.60
38380;DHT22;38377;47.418;18.882;2023-06-22T13:06:24;32.40;74.30
38380;DHT22;38377;47.418;18.882;2023-06-22T13:08:50;32.60;72.30
38380;DHT22;38377;47.418;18.882;2023-06-22T13:11:16;32.70;74.60
38380;DHT22;38377;47.418;18.882;2023-06-22T13:13:41;32.70;73.60
38380;DHT22;38377;47.418;18.882;2023-06-22T13:16:07;32.60;70.20
38380;DHT22;38377;47.418;18.882;2023-06-22T13:18:33;32.30;70.20
38380;DHT22;38377;47.418;18.882;2023-06-22T13:21:01;32.20;72.20
38380;DHT22;38377;47.418;18.882;2023-06-22T13:23:27;32.20;72.50
38380;DHT22;38377;47.418;18.882;2023-06-22T13:25:53;32.30;72.40
38380;DHT22;38377;47.418;18.882;2023-06-22T13:28:19;32.40;73.90
38380;DHT22;38377;47.418;18.882;2023-06-22T13:30:46;32.50;71.90
38380;DHT22;38377;47.418;18.882;2023-06-22T13:33:13;32.40;70.70
38380;DHT22;38377;47.418;18.882;2023-06-22T13:35:39;32.50;72.60
38380;DHT22;38377;47.418;18.882;2023-06-22T13:38:08;32.40;73.00
38380;DHT22;38377;47.418;18.882;2023-06-22T13:40:34;32.50;74.00
38380;DHT22;38377;47.418;18.882;2023-06-22T13:43:00;32.50;70.90
38380;DHT22;38377;47.418;18.882;2023-06-22T13:45:26;32.50;72.00
38380;DHT22;38377;47.418;18.882;2023-06-22T13:47:52;32.70;69.50
38380;DHT22;38377;47.418;18.882;2023-06-22T13:50:17;32.50;70.00
38380;DHT22;38377;47.418;18.882;2023-06-22T13:52:43;32.60;71.30
38380;DHT22;38377;47.418;18.882;2023-06-22T13:55:09;32.40;71.80
38380;DHT22;38377;47.418;18.882;2023-06-22T13:57:35;32.60;73.80
38380;DHT22;38377;47.418;18.882;2023-06-22T14:00:03;32.50;70.90
38380;DHT22;38377;47.418;18.882;2023-06-22T14:02:30;32.50;71.50
38380;DHT22;38377;47.418;18.882;2023-06-22T14:04:56;32.60;71.80
38380;DHT22;38377;47.418;18.882;2023-06-22T14:07:22;32.70;73.50
38380;DHT22;38377;47.418;18.882;2023-06-22T14:09:49;32.60;73.00
38380;DHT22;38377;47.418;18.882;2023-06-22T14:12:15;32.50;72.30
38380;DHT22;38377;47.418;18.882;2023-06-22T14:14:43;32.50;73.20
38380;DHT22;38377;47.418;18.882;2023-06-22T14:17:09;32.50;71.20
38380;DHT22;38377;47.418;18.882;2023-06-22T14:19:35;32.40;71.00
38380;DHT22;38377;47.418;18.882;2023-06-22T14:22:01;32.30;72.20
38380;DHT22;38377;47.418;18.882;2023-06-22T14:24:27;32.50;71.30
38380;DHT22;38377;47.418;18.882;2023-06-22T14:26:54;32.40;74.00
38380;DHT22;38377;47.418;18.882;2023-06-22T14:29:20;32.40;74.90
38380;DHT22;38377;47.418;18.882;2023-06-22T14:31:46;32.50;74.50
38380;DHT22;38377;47.418;18.882;2023-06-22T14:34:12;32.30;73.90
38380;DHT22;38377;47.418;18.882;2023-06-22T14:36:38;32.20;74.30
38380;DHT22;38377;47.418;18.882;2023-06-22T14:39:04;32.10;72.50
38380;DHT22;38377;47.418;18.882;2023-06-22T14:41:30;32.10;72.00
38380;DHT22;38377;47.418;18.882;2023-06-22T14:43:56;31.90;71.90
38380;DHT22;38377;47.418;18.882;2023-06-22T14:46:22;32.00;72.10
38380;DHT22;38377;47.418;18.882;2023-06-22T14:48:48;31.90;73.00
38380;DHT22;38377;47.418;18.882;2023-06-22T14:51:14;32.00;72.70
38380;DHT22;38377;47.418;18.882;2023-06-22T14:53:40;32.00;73.10
38380;DHT22;38377;47.418;18.882;2023-06-22T14:56:06;32.00;74.50
38380;DHT22;38377;47.418;18.882;2023-06-22T14:58:32;31.90;71.50
38380;DHT22;38377;47.418;18.882;2023-06-22T15:01:04;31.90;72.00
38380;DHT22;38377;47.418;18.882;2023-06-22T15:03:31;31.90;71.80
38380;DHT22;38377;47.418;18.882;2023-06-22T15:05:58;31.90;76.20
38380;DHT22;38377;47.418;18.882;2023-06-22T15:08:24;31.90;76.40
38380;DHT22;38377;47.418;18.882;2023-06-22T15:10:51;31.90;73.40
38380;DHT22;38377;47.418;18.882;2023-06-22T15:13:17;31.70;73.80
38380;DHT22;38377;47.418;18.882;2023-06-22T15:15:45;31.60;71.70
38380;DHT22;38377;47.418;18.882;2023-06-22T15:18:11;31.60;73.50
38380;DHT22;38377;47.418;18.882;2023-06-22T15:20:37;31.50;74.10